Weather at Moberg Air Base Seaplane Base

Public forecast

Using degrees Fahrenheit for public forecast. Weather courtesy of forecast.io.

Closest aviation weather report (METAR) to Moberg Air Base Seaplane Base

Closest report is Bemidji Regional Airport, 0.9 nm (1.6 km) NE.

2024/06/23 10:35 (retrieved 11 minutes ago)

KBJI 231035Z AUTO 25005KT 1/4SM FG OVC002 16/16 A2983 RMK AO2 LTG DSNT NE T01600160

Closest aviation forecast (TAF) to Moberg Air Base Seaplane Base

Closest forecast is Bemidji Regional Airport, 0.9 nm (1.6 km) NE.

2024/06/23 10:54 Ammendment (retrieved 0 seconds ago)

TAF AMD KBJI 230952Z 2310/2406 VRB04KT 3/4SM BR BKN003 FM231400 30006KT P6SM SCT015